Time;durP1;ratioP1;P1;durP2;ratioP2;P2;SDS_P1;SDS_P2;PMS_P1;PMS_P2;Temp;Humidity;BMP_temperature;BMP_pressure;BME280_temperature;BME280_humidity;BME280_pressure;Samples;Min_cycle;Max_cycle;Signal;HPM_P1;HPM_P2
2023/05/18 00:02:03;;;;;;;7.07;3.25;;;9.70;99.90;;;;;;4994900;28;20269;-82
2023/05/18 00:04:31;;;;;;;5.43;2.88;;;9.70;99.90;;;;;;4996214;28;20261;-83
2023/05/18 00:07:02;;;;;;;8.95;3.38;;;9.70;99.90;;;;;;4979057;28;20194;-83
2023/05/18 00:09:31;;;;;;;12.63;3.90;;;9.50;99.90;;;;;;4996896;28;20236;-83
2023/05/18 00:11:58;;;;;;;7.90;3.20;;;9.50;99.90;;;;;;4996115;28;20170;-83
2023/05/18 00:14:24;;;;;;;6.32;3.00;;;9.30;99.90;;;;;;4996866;28;20186;-82
2023/05/18 00:16:52;;;;;;;7.28;3.35;;;9.30;99.90;;;;;;4996144;28;20182;-83
2023/05/18 00:19:19;;;;;;;5.65;2.75;;;9.30;99.90;;;;;;4978882;28;20186;-82
2023/05/18 00:21:46;;;;;;;5.22;3.35;;;9.20;99.90;;;;;;4996120;28;20177;-83
2023/05/18 00:24:16;;;;;;;5.97;2.80;;;9.10;99.90;;;;;;4996279;28;20185;-83
2023/05/18 00:26:43;;;;;;;6.00;3.00;;;9.10;99.90;;;;;;4995010;28;20260;-83
2023/05/18 00:29:09;;;;;;;5.18;2.67;;;9.00;99.90;;;;;;4996010;28;20186;-83
2023/05/18 00:31:37;;;;;;;6.43;3.17;;;9.00;99.90;;;;;;4995284;28;20180;-82
2023/05/18 00:34:05;;;;;;;8.10;3.27;;;8.90;99.90;;;;;;4978690;28;20174;-82
2023/05/18 00:36:32;;;;;;;12.73;2.77;;;8.90;99.90;;;;;;4979425;28;20189;-82
2023/05/18 00:38:58;;;;;;;5.15;3.05;;;8.90;99.90;;;;;;4994499;28;20256;-82
2023/05/18 00:41:25;;;;;;;5.37;3.37;;;8.80;99.90;;;;;;4985586;28;20162;-82
2023/05/18 00:43:54;;;;;;;9.23;3.20;;;8.70;99.90;;;;;;5006644;28;20639;-82
2023/05/18 00:46:25;;;;;;;6.20;2.93;;;8.70;99.90;;;;;;5008849;28;20242;-82
2023/05/18 00:48:51;;;;;;;4.20;2.63;;;8.60;99.90;;;;;;5006663;28;20170;-82
2023/05/18 00:51:18;;;;;;;6.27;3.00;;;8.60;99.90;;;;;;4995734;28;20170;-82
2023/05/18 00:53:44;;;;;;;10.87;2.77;;;8.50;99.90;;;;;;4995363;28;20185;-82
2023/05/18 00:56:11;;;;;;;10.63;3.10;;;8.50;99.90;;;;;;5007966;28;20181;-82
2023/05/18 00:58:41;;;;;;;5.10;2.60;;;8.50;99.90;;;;;;4991501;28;20178;-80
2023/05/18 01:01:10;;;;;;;15.03;3.40;;;8.50;99.90;;;;;;5007295;28;20170;-81
2023/05/18 01:03:37;;;;;;;5.37;2.90;;;8.40;99.90;;;;;;4975998;28;20194;-81
2023/05/18 01:06:08;;;;;;;15.10;3.93;;;8.30;99.90;;;;;;5001735;28;20189;-83
2023/05/18 01:08:35;;;;;;;6.10;2.57;;;8.30;99.90;;;;;;4995237;28;20558;-82
2023/05/18 01:11:06;;;;;;;3.75;2.17;;;8.20;99.90;;;;;;4995145;28;20181;-82
2023/05/18 01:14:01;;;;;;;4.27;2.70;;;8.20;99.90;;;;;;4995435;28;20174;-82
2023/05/18 01:16:36;;;;;;;5.77;2.60;;;8.20;99.90;;;;;;4995361;28;20185;-82
2023/05/18 01:19:27;;;;;;;5.40;2.70;;;8.10;99.90;;;;;;4995177;28;20538;-82
2023/05/18 01:22:04;;;;;;;9.07;3.60;;;8.00;99.90;;;;;;4994616;28;20181;-82
2023/05/18 01:24:41;;;;;;;5.00;2.63;;;8.10;99.90;;;;;;4995211;28;20185;-83
2023/05/18 01:27:08;;;;;;;5.07;2.47;;;8.00;99.90;;;;;;5000028;28;20197;-83
2023/05/18 01:29:34;;;;;;;12.07;3.00;;;8.00;99.90;;;;;;5019020;28;20159;-82
2023/05/18 01:32:00;;;;;;;10.53;3.13;;;7.90;99.90;;;;;;4978217;28;20243;-83
2023/05/18 01:34:26;;;;;;;7.43;3.00;;;8.00;99.90;;;;;;4994529;28;20189;-82
2023/05/18 01:36:52;;;;;;;4.67;2.50;;;7.90;99.90;;;;;;4977145;28;20202;-82
2023/05/18 01:39:18;;;;;;;5.70;2.00;;;7.80;99.90;;;;;;4993642;28;20198;-82
2023/05/18 01:42:07;;;;;;;7.33;2.53;;;7.80;99.90;;;;;;4977315;28;20275;-82
2023/05/18 01:44:39;;;;;;;7.77;2.03;;;7.70;99.90;;;;;;4995147;28;20162;-82
2023/05/18 01:47:16;;;;;;;8.00;2.20;;;7.70;99.90;;;;;;4996995;28;20197;-83
2023/05/18 01:49:50;;;;;;;9.67;2.73;;;7.60;99.90;;;;;;4995080;28;20177;-83
2023/05/18 01:52:20;;;;;;;14.03;3.53;;;7.50;99.90;;;;;;4993659;28;20655;-83
2023/05/18 01:54:51;;;;;;;5.83;2.40;;;7.40;99.90;;;;;;4994572;28;20178;-83
2023/05/18 01:57:19;;;;;;;8.70;2.53;;;7.40;99.90;;;;;;4994413;28;20173;-82
2023/05/18 01:59:45;;;;;;;5.03;2.33;;;7.40;99.90;;;;;;4977193;28;20213;-82
2023/05/18 02:02:11;;;;;;;14.20;2.90;;;7.40;99.90;;;;;;4993020;28;20275;-82
2023/05/18 02:04:36;;;;;;;4.20;2.30;;;7.30;99.90;;;;;;4976969;28;20676;-82
2023/05/18 02:07:02;;;;;;;6.50;2.40;;;7.30;99.90;;;;;;4992121;28;20213;-83
2023/05/18 02:09:28;;;;;;;7.60;3.10;;;7.30;99.90;;;;;;4976571;28;20192;-82
2023/05/18 02:11:53;;;;;;;4.63;2.17;;;7.20;99.90;;;;;;4976284;28;20201;-84
2023/05/18 02:14:19;;;;;;;4.73;2.47;;;7.20;99.90;;;;;;4976755;28;20185;-82
2023/05/18 02:16:45;;;;;;;4.20;2.73;;;7.20;99.90;;;;;;4994294;28;20194;-82
2023/05/18 02:19:14;;;;;;;3.73;1.70;;;7.10;99.90;;;;;;4976567;28;20193;-83
2023/05/18 02:21:42;;;;;;;6.77;2.20;;;7.20;99.90;;;;;;4976897;28;20182;-83
2023/05/18 02:24:08;;;;;;;5.30;2.20;;;7.10;99.90;;;;;;4976949;28;20261;-82
2023/05/18 02:26:33;;;;;;;5.63;2.20;;;7.10;99.90;;;;;;4976736;28;20288;-82
2023/05/18 02:29:01;;;;;;;2.67;1.53;;;7.10;99.90;;;;;;4992762;28;20545;-83
2023/05/18 02:31:28;;;;;;;1.70;1.47;;;7.10;99.90;;;;;;4994130;28;20178;-83
2023/05/18 02:33:54;;;;;;;7.77;2.60;;;7.10;99.90;;;;;;4992793;28;20231;-82
2023/05/18 02:36:21;;;;;;;5.20;1.80;;;7.20;99.90;;;;;;4993705;28;20580;-83
2023/05/18 02:38:47;;;;;;;9.23;2.23;;;7.20;99.90;;;;;;4976868;28;20289;-82
2023/05/18 02:41:13;;;;;;;7.67;1.83;;;7.20;99.90;;;;;;4992328;28;20173;-82
2023/05/18 02:43:39;;;;;;;8.93;2.27;;;7.20;99.90;;;;;;4994012;28;20181;-82
2023/05/18 02:46:06;;;;;;;5.77;2.23;;;7.10;99.90;;;;;;4960592;28;20206;-83
2023/05/18 02:48:32;;;;;;;4.00;1.60;;;7.10;99.90;;;;;;4976481;28;20229;-82
2023/05/18 02:50:58;;;;;;;8.83;2.30;;;7.00;99.90;;;;;;4976339;28;20182;-83
2023/05/18 02:53:25;;;;;;;8.43;2.63;;;7.00;99.90;;;;;;4992801;28;20236;-83
2023/05/18 02:55:57;;;;;;;2.73;1.40;;;7.00;99.90;;;;;;4994269;28;20174;-82
2023/05/18 02:58:24;;;;;;;3.97;2.10;;;6.90;99.90;;;;;;4993818;28;20623;-82
2023/05/18 03:00:51;;;;;;;2.53;1.87;;;7.00;99.90;;;;;;4993477;28;20221;-83
2023/05/18 03:03:17;;;;;;;6.37;2.43;;;6.90;99.90;;;;;;4976289;28;20174;-83
2023/05/18 03:05:43;;;;;;;4.93;2.43;;;6.90;99.90;;;;;;4960488;28;20591;-82
2023/05/18 03:08:09;;;;;;;7.80;2.20;;;6.90;99.90;;;;;;4993350;28;20244;-83
2023/05/18 03:10:36;;;;;;;12.30;2.63;;;6.90;99.90;;;;;;4992512;28;20273;-82
2023/05/18 03:13:02;;;;;;;5.67;2.23;;;7.00;99.90;;;;;;4992665;28;20236;-83
2023/05/18 03:15:30;;;;;;;2.97;1.87;;;7.00;99.90;;;;;;4993862;28;20178;-81
2023/05/18 03:17:58;;;;;;;4.43;2.33;;;7.00;99.90;;;;;;4993021;28;20201;-81
2023/05/18 03:20:24;;;;;;;6.33;2.40;;;7.00;99.90;;;;;;4965018;28;20186;-82
2023/05/18 03:22:50;;;;;;;12.00;3.00;;;7.00;99.90;;;;;;4998479;28;20189;-83
2023/05/18 03:25:16;;;;;;;3.60;2.10;;;7.00;99.90;;;;;;5000590;28;20190;-82
2023/05/18 03:27:41;;;;;;;7.40;2.73;;;7.00;99.90;;;;;;4988067;28;20213;-83
2023/05/18 03:30:08;;;;;;;3.87;1.70;;;7.00;99.90;;;;;;5018876;28;20233;-83
2023/05/18 03:32:35;;;;;;;8.73;3.53;;;7.00;99.90;;;;;;4992939;28;20190;-82
2023/05/18 03:35:02;;;;;;;4.77;2.10;;;7.00;99.90;;;;;;5004543;28;20177;-82
2023/05/18 03:37:27;;;;;;;4.27;2.17;;;6.90;99.90;;;;;;5016342;28;20192;-82
2023/05/18 03:39:54;;;;;;;8.47;3.07;;;6.90;99.90;;;;;;5005764;28;20225;-82
2023/05/18 03:42:20;;;;;;;6.27;2.67;;;6.80;99.90;;;;;;5019901;28;20220;-82
2023/05/18 03:44:45;;;;;;;12.63;2.50;;;6.80;99.90;;;;;;5004703;28;20186;-81
2023/05/18 03:47:11;;;;;;;6.17;2.27;;;6.80;99.90;;;;;;5004054;28;20197;-83
2023/05/18 03:49:37;;;;;;;7.77;2.13;;;6.80;99.90;;;;;;5021004;28;20273;-83
2023/05/18 03:52:03;;;;;;;4.13;2.03;;;6.80;99.90;;;;;;5018231;28;20246;-82
2023/05/18 03:54:29;;;;;;;3.17;2.23;;;6.80;99.90;;;;;;4998272;28;20226;-83
2023/05/18 03:56:55;;;;;;;4.33;2.10;;;6.80;99.90;;;;;;4998622;28;20214;-84
2023/05/18 03:59:20;;;;;;;3.83;1.60;;;6.80;99.90;;;;;;4997589;28;20639;-82
2023/05/18 04:01:46;;;;;;;6.20;1.67;;;6.80;99.90;;;;;;4997924;28;20202;-81
2023/05/18 04:04:16;;;;;;;1.73;1.63;;;6.70;99.90;;;;;;4998322;28;20256;-82
2023/05/18 04:06:45;;;;;;;1.27;1.17;;;6.60;99.90;;;;;;4997643;28;20201;-82
2023/05/18 04:09:13;;;;;;;5.03;2.20;;;6.50;99.90;;;;;;4981126;28;20209;-83
2023/05/18 04:11:40;;;;;;;4.23;1.77;;;6.40;99.90;;;;;;4979311;28;20598;-84
2023/05/18 04:14:07;;;;;;;3.83;1.80;;;6.40;99.90;;;;;;4976089;28;20197;-83
2023/05/18 04:16:33;;;;;;;3.77;1.93;;;6.40;99.90;;;;;;4974931;28;20206;-82
2023/05/18 04:18:59;;;;;;;4.57;1.63;;;6.40;99.90;;;;;;4971367;28;20190;-82
2023/05/18 04:21:25;;;;;;;6.67;1.80;;;6.40;99.90;;;;;;4972005;28;20286;-83
2023/05/18 04:23:51;;;;;;;2.77;1.60;;;6.50;99.90;;;;;;4974639;28;20265;-82
2023/05/18 04:26:18;;;;;;;7.67;1.90;;;6.50;99.90;;;;;;4988920;28;20191;-82
2023/05/18 04:28:47;;;;;;;7.87;1.83;;;6.50;99.90;;;;;;4973767;28;20183;-82
2023/05/18 04:31:13;;;;;;;4.40;2.03;;;6.50;99.90;;;;;;4988570;28;20187;-82
2023/05/18 04:33:40;;;;;;;2.60;1.87;;;6.50;99.90;;;;;;5006532;28;20202;-82
2023/05/18 04:36:06;;;;;;;9.40;1.87;;;6.50;99.90;;;;;;4992173;28;20187;-82
2023/05/18 04:38:35;;;;;;;5.33;1.77;;;6.50;99.90;;;;;;4989070;28;20281;-82
2023/05/18 04:41:04;;;;;;;2.67;1.40;;;6.50;99.90;;;;;;4973106;28;20326;-83
2023/05/18 04:43:29;;;;;;;2.67;1.80;;;6.50;99.90;;;;;;4988843;28;20244;-84
2023/05/18 04:45:56;;;;;;;4.60;2.60;;;6.50;99.90;;;;;;4989694;28;20289;-82
2023/05/18 04:48:24;;;;;;;4.73;1.47;;;6.60;99.90;;;;;;4988977;28;20377;-84
2023/05/18 04:50:53;;;;;;;1.67;1.50;;;6.50;99.90;;;;;;4957192;28;20226;-84
2023/05/18 04:53:20;;;;;;;6.27;1.97;;;6.50;99.90;;;;;;4973629;28;20183;-83
2023/05/18 04:55:48;;;;;;;2.73;1.47;;;6.50;99.90;;;;;;4976040;28;20190;-83
2023/05/18 04:58:15;;;;;;;4.73;1.70;;;6.60;99.90;;;;;;4991845;28;20225;-83
2023/05/18 05:00:41;;;;;;;1.63;1.53;;;6.50;99.90;;;;;;4957593;28;20198;-83
2023/05/18 05:03:07;;;;;;;2.27;1.37;;;6.50;99.90;;;;;;4977795;28;20201;-84
2023/05/18 05:05:34;;;;;;;4.90;1.47;;;6.50;99.90;;;;;;4993561;28;20194;-83
2023/05/18 05:08:00;;;;;;;6.37;1.50;;;6.50;99.90;;;;;;4963561;28;20229;-85
2023/05/18 05:10:27;;;;;;;4.90;2.33;;;6.40;99.90;;;;;;4970691;28;20194;-84
2023/05/18 05:12:53;;;;;;;4.87;1.50;;;6.40;99.90;;;;;;4984384;28;20182;-84
2023/05/18 05:15:19;;;;;;;3.13;1.80;;;6.40;99.90;;;;;;4982565;28;20301;-84
2023/05/18 05:17:48;;;;;;;5.97;2.43;;;6.50;99.90;;;;;;4972470;28;20716;-83
2023/05/18 05:20:15;;;;;;;9.33;2.83;;;;;;;;;;4989064;28;20199;-83
2023/05/18 05:22:40;;;;;;;2.23;1.50;;;6.40;99.90;;;;;;4973623;28;20270;-83
2023/05/18 05:25:07;;;;;;;2.57;1.70;;;6.50;99.90;;;;;;4955199;28;20281;-83
2023/05/18 05:27:33;;;;;;;2.17;1.70;;;6.50;99.90;;;;;;4988535;28;20590;-83
2023/05/18 05:29:58;;;;;;;3.60;1.63;;;6.50;99.90;;;;;;4989434;28;20213;-83
2023/05/18 05:32:24;;;;;;;7.50;2.10;;;6.50;99.90;;;;;;4972655;28;20636;-84
2023/05/18 05:34:50;;;;;;;2.40;1.23;;;6.50;99.90;;;;;;4988776;28;20210;-83
2023/05/18 05:37:17;;;;;;;5.50;1.30;;;6.60;99.90;;;;;;4968009;28;20190;-83
2023/05/18 05:39:42;;;;;;;3.10;1.90;;;6.50;99.90;;;;;;4964850;28;20190;-83
2023/05/18 05:42:08;;;;;;;5.83;1.83;;;;;;;;;;4955493;28;20584;-84
2023/05/18 05:44:34;;;;;;;3.50;1.73;;;6.60;99.90;;;;;;4973693;28;20198;-84
2023/05/18 05:47:00;;;;;;;3.37;1.90;;;6.60;99.90;;;;;;4956165;28;20210;-84
2023/05/18 05:49:26;;;;;;;3.50;2.13;;;6.60;99.90;;;;;;4971656;28;20194;-84
2023/05/18 05:51:52;;;;;;;3.60;1.80;;;6.70;99.90;;;;;;4961393;28;20194;-84
2023/05/18 05:54:17;;;;;;;5.77;2.03;;;6.70;99.90;;;;;;4958867;28;20237;-85
2023/05/18 05:56:43;;;;;;;2.10;1.53;;;6.70;99.90;;;;;;4958143;28;20201;-84
2023/05/18 05:59:09;;;;;;;2.57;1.60;;;6.70;99.90;;;;;;4958961;28;20225;-84
2023/05/18 06:01:35;;;;;;;4.70;2.23;;;6.70;99.90;;;;;;4988711;28;20783;-84
2023/05/18 06:04:02;;;;;;;3.00;1.80;;;6.70;99.90;;;;;;4970233;28;20209;-85
2023/05/18 06:06:28;;;;;;;4.87;1.93;;;6.80;99.90;;;;;;4986479;28;21744;-85
2023/05/18 06:08:54;;;;;;;2.17;1.80;;;6.80;99.90;;;;;;4973272;28;20189;-84
2023/05/18 06:11:20;;;;;;;4.73;2.43;;;6.80;99.90;;;;;;4988776;28;20197;-85
2023/05/18 06:13:45;;;;;;;6.63;1.80;;;6.80;99.90;;;;;;4971993;28;20194;-84
2023/05/18 06:16:11;;;;;;;2.87;1.87;;;6.80;99.90;;;;;;4972796;28;20190;-84
2023/05/18 06:18:38;;;;;;;6.97;2.33;;;6.80;99.90;;;;;;4988022;28;20540;-84
2023/05/18 06:21:03;;;;;;;4.53;1.93;;;6.90;99.90;;;;;;4988159;28;20197;-84
2023/05/18 06:23:29;;;;;;;4.37;1.90;;;6.90;99.90;;;;;;4986797;28;20190;-84
2023/05/18 06:25:55;;;;;;;7.37;2.73;;;6.90;99.90;;;;;;4972371;28;20190;-85
2023/05/18 06:28:21;;;;;;;8.40;1.90;;;6.90;99.90;;;;;;4971654;28;20562;-84
2023/05/18 06:30:46;;;;;;;5.50;2.13;;;6.90;99.90;;;;;;4971472;28;20198;-84
2023/05/18 06:33:13;;;;;;;4.40;1.93;;;6.90;99.90;;;;;;4970788;28;20281;-84
2023/05/18 06:35:39;;;;;;;5.77;2.17;;;7.00;99.90;;;;;;4986626;28;20178;-85
2023/05/18 06:38:07;;;;;;;3.07;1.80;;;6.90;99.90;;;;;;4985909;28;20198;-85
2023/05/18 06:40:33;;;;;;;3.27;2.43;;;6.90;99.90;;;;;;4985739;28;20656;-84
2023/05/18 06:42:59;;;;;;;3.97;1.83;;;6.90;99.90;;;;;;4986035;28;20292;-84
2023/05/18 06:45:25;;;;;;;2.47;1.70;;;6.90;99.90;;;;;;5002532;28;20277;-85
2023/05/18 06:47:51;;;;;;;5.07;3.03;;;7.00;99.90;;;;;;4972106;28;20261;-84
2023/05/18 06:50:16;;;;;;;3.20;1.60;;;7.00;99.90;;;;;;4972837;28;20198;-85
2023/05/18 06:52:43;;;;;;;4.80;1.90;;;6.90;99.90;;;;;;4991905;28;20187;-85
2023/05/18 06:55:09;;;;;;;4.80;1.60;;;6.90;99.90;;;;;;5007233;28;20294;-84
2023/05/18 06:57:34;;;;;;;4.63;1.97;;;6.80;99.90;;;;;;4978101;28;20198;-84
2023/05/18 07:00:00;;;;;;;5.07;2.77;;;7.00;99.90;;;;;;4993524;28;20194;-85
2023/05/18 07:02:26;;;;;;;5.97;1.60;;;7.00;99.90;;;;;;4998187;28;20218;-84
2023/05/18 07:04:51;;;;;;;4.13;1.77;;;7.00;99.90;;;;;;4994899;28;20275;-84
2023/05/18 07:07:17;;;;;;;5.10;1.53;;;7.10;99.90;;;;;;4974536;28;20582;-83
2023/05/18 07:09:44;;;;;;;3.17;2.00;;;7.20;99.90;;;;;;4957588;28;20195;-85
2023/05/18 07:12:11;;;;;;;4.97;2.63;;;7.20;99.90;;;;;;4958859;28;20212;-86
2023/05/18 07:14:37;;;;;;;5.00;2.03;;;7.20;99.90;;;;;;4975968;28;20201;-84
2023/05/18 07:17:03;;;;;;;3.97;1.77;;;7.20;99.90;;;;;;4997073;28;20220;-83
2023/05/18 07:19:29;;;;;;;4.73;2.43;;;7.20;99.90;;;;;;4997119;28;20202;-82
2023/05/18 07:21:55;;;;;;;4.43;1.77;;;7.30;99.90;;;;;;4997420;28;20197;-84
2023/05/18 07:24:21;;;;;;;3.73;1.50;;;;;;;;;;5027077;28;20218;-86
2023/05/18 07:26:47;;;;;;;5.13;2.20;;;7.30;99.90;;;;;;4980726;28;20261;-85
2023/05/18 07:29:13;;;;;;;6.10;2.40;;;7.20;99.90;;;;;;4977046;28;20217;-84
2023/05/18 07:31:39;;;;;;;2.17;1.67;;;7.30;99.90;;;;;;4989089;28;20182;-84
2023/05/18 07:34:06;;;;;;;1.90;1.30;;;7.30;99.90;;;;;;4998712;28;20193;-83
2023/05/18 07:36:31;;;;;;;6.27;2.20;;;7.30;99.90;;;;;;4977872;28;20194;-84
2023/05/18 07:38:57;;;;;;;5.87;2.30;;;7.30;99.90;;;;;;4998025;28;20187;-85
2023/05/18 07:41:23;;;;;;;2.40;1.90;;;7.30;99.90;;;;;;5009460;28;20187;-84
2023/05/18 07:43:50;;;;;;;4.33;2.20;;;7.40;99.90;;;;;;4959179;28;20238;-84
2023/05/18 07:46:17;;;;;;;4.87;1.70;;;7.40;99.90;;;;;;4975340;28;20197;-85
2023/05/18 07:48:44;;;;;;;1.63;1.23;;;7.40;99.90;;;;;;4975956;28;20254;-84
2023/05/18 07:51:10;;;;;;;3.87;2.10;;;;;;;;;;4991285;28;20191;-83
2023/05/18 07:53:36;;;;;;;2.13;1.80;;;7.50;99.90;;;;;;4975135;28;20722;-83
2023/05/18 07:56:03;;;;;;;3.57;2.13;;;7.50;99.90;;;;;;4991128;28;20198;-84
2023/05/18 07:58:29;;;;;;;4.40;1.90;;;7.40;99.90;;;;;;4974904;28;20278;-84
2023/05/18 08:00:55;;;;;;;3.77;1.80;;;7.40;99.90;;;;;;4957079;28;20273;-83
2023/05/18 08:03:21;;;;;;;4.07;1.60;;;7.40;99.90;;;;;;4974153;28;20202;-83
2023/05/18 08:05:47;;;;;;;8.33;1.63;;;7.40;99.90;;;;;;4989198;28;20668;-84
2023/05/18 08:08:14;;;;;;;7.83;1.70;;;7.30;99.90;;;;;;5005537;28;20222;-84
2023/05/18 08:10:40;;;;;;;4.20;2.30;;;7.30;99.90;;;;;;4957336;28;20655;-83
2023/05/18 08:13:07;;;;;;;4.27;2.33;;;7.20;99.90;;;;;;4976131;28;20249;-84
2023/05/18 08:15:34;;;;;;;2.13;1.73;;;7.30;99.90;;;;;;4976023;28;20185;-83
2023/05/18 08:18:00;;;;;;;11.83;2.00;;;7.40;99.90;;;;;;4990730;28;20187;-83
2023/05/18 08:20:29;;;;;;;4.50;2.27;;;7.40;99.90;;;;;;4991089;28;20279;-83
2023/05/18 08:22:55;;;;;;;2.40;1.70;;;7.60;99.90;;;;;;4990568;28;20186;-84
2023/05/18 08:25:22;;;;;;;4.47;2.17;;;7.70;99.90;;;;;;4975854;28;20213;-83
2023/05/18 08:27:48;;;;;;;3.60;2.13;;;7.70;99.90;;;;;;4975052;28;20861;-83
2023/05/18 08:30:14;;;;;;;6.40;2.27;;;7.80;99.90;;;;;;5009971;28;20703;-82
2023/05/18 08:32:40;;;;;;;3.30;1.90;;;7.90;99.90;;;;;;4994998;28;20184;-82
2023/05/18 08:35:07;;;;;;;2.50;1.67;;;7.80;99.90;;;;;;4994973;28;20181;-84
2023/05/18 08:37:33;;;;;;;8.23;2.63;;;7.80;99.90;;;;;;4995074;28;20224;-84
2023/05/18 08:39:59;;;;;;;4.17;1.80;;;9.30;99.90;;;;;;4977600;28;20277;-83
2023/05/18 08:42:44;;;;;;;6.47;2.43;;;7.80;99.90;;;;;;4977060;28;20328;-82
2023/05/18 08:45:14;;;;;;;8.20;2.83;;;7.80;99.90;;;;;;4995253;28;20170;-87
2023/05/18 08:47:40;;;;;;;3.67;1.63;;;7.90;99.90;;;;;;4978181;28;20210;-86
2023/05/18 08:50:12;;;;;;;3.43;1.73;;;7.80;99.90;;;;;;4993582;28;20196;-85
2023/05/18 08:52:45;;;;;;;4.67;2.13;;;7.80;99.90;;;;;;4995070;28;20244;-83
2023/05/18 08:55:12;;;;;;;3.03;2.03;;;7.80;99.90;;;;;;4994562;28;20245;-84
2023/05/18 08:57:41;;;;;;;9.20;1.67;;;7.70;99.90;;;;;;4993908;28;20182;-83
2023/05/18 09:00:09;;;;;;;5.63;1.80;;;7.70;99.90;;;;;;4994833;28;20269;-84
2023/05/18 09:02:36;;;;;;;7.40;2.80;;;7.70;99.90;;;;;;4972134;28;20201;-84
2023/05/18 09:05:02;;;;;;;4.47;2.33;;;7.80;99.90;;;;;;4986149;28;20245;-84
2023/05/18 09:07:28;;;;;;;5.30;1.80;;;7.80;99.90;;;;;;4970016;28;20210;-83
2023/05/18 09:09:55;;;;;;;2.10;1.80;;;7.80;99.90;;;;;;4983610;28;20241;-85
2023/05/18 09:12:23;;;;;;;3.63;2.37;;;7.80;99.90;;;;;;4982720;28;20190;-84
2023/05/18 09:14:51;;;;;;;4.63;1.80;;;7.90;99.90;;;;;;4982372;28;20182;-87
2023/05/18 09:17:17;;;;;;;3.30;2.20;;;7.90;99.90;;;;;;4986141;28;20198;-86
2023/05/18 09:19:43;;;;;;;4.27;2.33;;;7.90;99.90;;;;;;4987923;28;20241;-86
2023/05/18 09:22:09;;;;;;;3.33;2.27;;;7.90;99.90;;;;;;5008674;28;20229;-84
2023/05/18 09:24:36;;;;;;;6.63;2.30;;;7.90;99.90;;;;;;5014280;28;20166;-84
2023/05/18 09:27:03;;;;;;;3.13;1.90;;;7.90;99.90;;;;;;4983395;28;20204;-86
2023/05/18 09:29:29;;;;;;;1.87;1.50;;;7.90;99.90;;;;;;4979205;28;20178;-84
2023/05/18 09:31:55;;;;;;;3.53;1.83;;;7.90;99.90;;;;;;4990701;28;20675;-84
2023/05/18 09:34:20;;;;;;;5.47;2.10;;;8.00;99.90;;;;;;4986836;28;20640;-84
2023/05/18 09:36:48;;;;;;;3.70;2.30;;;8.10;99.90;;;;;;4980802;28;20229;-85
2023/05/18 09:39:14;;;;;;;4.60;2.20;;;8.10;99.90;;;;;;4991445;28;20198;-85
2023/05/18 09:41:40;;;;;;;6.23;2.47;;;8.00;99.90;;;;;;4989856;28;20167;-85
2023/05/18 09:44:11;;;;;;;3.60;2.20;;;8.00;99.90;;;;;;5001221;28;20213;-85
2023/05/18 09:46:38;;;;;;;5.40;2.17;;;7.90;99.90;;;;;;4986757;28;20185;-85
2023/05/18 09:49:05;;;;;;;2.40;2.00;;;7.90;99.90;;;;;;4981522;28;20204;-85
2023/05/18 09:51:41;;;;;;;5.00;2.13;;;7.80;99.90;;;;;;4983881;28;20178;-88
2023/05/18 09:54:09;;;;;;;2.43;1.50;;;7.80;99.90;;;;;;4980473;28;20175;-84
2023/05/18 09:56:36;;;;;;;3.80;2.10;;;7.80;99.90;;;;;;4983233;28;20204;-85
2023/05/18 09:59:09;;;;;;;2.80;2.03;;;7.80;99.90;;;;;;4999787;28;20211;-84
2023/05/18 10:01:35;;;;;;;7.87;2.67;;;7.90;99.90;;;;;;4980596;28;20225;-84
2023/05/18 10:04:05;;;;;;;5.53;3.87;;;7.90;99.90;;;;;;4984725;28;20179;-84
2023/05/18 10:06:30;;;;;;;6.17;2.77;;;8.00;99.90;;;;;;4982764;28;20182;-84
2023/05/18 10:08:57;;;;;;;4.83;2.53;;;7.90;99.90;;;;;;4981902;28;20192;-84
2023/05/18 10:11:23;;;;;;;11.20;3.33;;;7.90;99.90;;;;;;4984552;28;20178;-84
2023/05/18 10:13:57;;;;;;;5.70;3.13;;;8.00;99.90;;;;;;4980357;28;20233;-87
2023/05/18 10:16:23;;;;;;;9.03;3.80;;;8.00;99.90;;;;;;4980147;28;20617;-85
2023/05/18 10:18:52;;;;;;;7.93;3.67;;;8.00;99.90;;;;;;4965295;28;20265;-85
2023/05/18 10:21:19;;;;;;;9.00;3.33;;;8.10;99.90;;;;;;4974965;28;20233;-84
2023/05/18 10:23:49;;;;;;;4.03;2.70;;;8.10;99.90;;;;;;4973453;28;20183;-83
2023/05/18 10:26:20;;;;;;;7.83;1.90;;;8.10;99.90;;;;;;4972919;28;20186;-84
2023/05/18 10:28:49;;;;;;;3.60;2.00;;;8.20;99.90;;;;;;4973904;28;20233;-84
2023/05/18 10:31:15;;;;;;;4.37;2.03;;;8.20;99.90;;;;;;4956848;28;20193;-85
2023/05/18 10:33:43;;;;;;;4.37;2.47;;;8.20;99.90;;;;;;4989997;28;20178;-84
2023/05/18 10:36:10;;;;;;;8.03;2.10;;;8.20;99.90;;;;;;4974023;28;20178;-85
2023/05/18 10:38:42;;;;;;;3.20;2.37;;;8.20;99.90;;;;;;4975113;28;20281;-84
2023/05/18 10:41:10;;;;;;;3.77;2.13;;;8.30;99.90;;;;;;4974287;28;20167;-85
2023/05/18 10:43:36;;;;;;;6.13;2.90;;;8.30;99.90;;;;;;4973079;28;20237;-84
2023/05/18 10:46:03;;;;;;;6.40;2.87;;;8.30;99.90;;;;;;4973935;28;20519;-85
2023/05/18 10:48:29;;;;;;;5.37;2.33;;;8.40;99.90;;;;;;4972973;28;20225;-84
2023/05/18 10:50:56;;;;;;;4.13;2.30;;;8.50;99.90;;;;;;4989185;28;20187;-85
2023/05/18 10:53:25;;;;;;;7.37;2.30;;;8.60;99.90;;;;;;4972897;28;20246;-84
2023/05/18 10:55:52;;;;;;;5.40;2.37;;;8.70;99.90;;;;;;4957289;28;20182;-82
2023/05/18 10:58:20;;;;;;;2.90;2.27;;;8.80;99.90;;;;;;4974186;28;20249;-87
2023/05/18 11:00:50;;;;;;;4.90;2.87;;;8.80;99.90;;;;;;4974103;28;20217;-83
2023/05/18 11:03:17;;;;;;;6.93;2.60;;;8.80;99.90;;;;;;4974288;28;20183;-84
2023/05/18 11:05:43;;;;;;;5.70;2.23;;;8.80;99.90;;;;;;4972906;28;20215;-83
2023/05/18 11:08:09;;;;;;;6.53;2.47;;;8.80;99.90;;;;;;4973862;28;20285;-85
2023/05/18 11:10:42;;;;;;;4.37;2.50;;;8.70;99.90;;;;;;4956792;28;20175;-84
2023/05/18 11:13:11;;;;;;;8.57;2.80;;;8.80;99.90;;;;;;4972702;28;20187;-85
2023/05/18 11:16:04;;;;;;;5.97;3.33;;;8.80;99.90;;;;;;4973874;28;20182;-84
2023/05/18 11:18:46;;;;;;;5.70;3.00;;;8.80;99.90;;;;;;4970739;28;20201;-84
2023/05/18 11:21:20;;;;;;;8.77;3.37;;;8.80;99.90;;;;;;4973915;28;20174;-84
2023/05/18 11:24:22;;;;;;;8.53;3.37;;;8.80;99.90;;;;;;4956897;28;20183;-84
2023/05/18 11:26:53;;;;;;;3.67;2.80;;;8.70;99.90;;;;;;4974329;28;20620;-85
2023/05/18 11:29:49;;;;;;;6.70;2.90;;;8.80;99.90;;;;;;4956402;28;20182;-84
2023/05/18 11:32:31;;;;;;;9.43;3.17;;;8.80;99.90;;;;;;4973930;28;20179;-84
2023/05/18 11:34:57;;;;;;;8.17;3.40;;;8.80;99.90;;;;;;4956696;28;20513;-84
2023/05/18 11:37:38;;;;;;;6.87;2.93;;;8.80;99.90;;;;;;4972672;28;20195;-84
2023/05/18 11:40:12;;;;;;;4.67;2.63;;;8.90;99.90;;;;;;4976525;28;20198;-84
2023/05/18 11:42:38;;;;;;;3.20;2.10;;;9.00;99.90;;;;;;4992356;28;20234;-84
2023/05/18 11:45:09;;;;;;;4.90;2.73;;;9.00;99.90;;;;;;4977577;28;20210;-84
2023/05/18 11:47:36;;;;;;;6.30;2.88;;;9.00;99.90;;;;;;4959696;28;20217;-86
2023/05/18 11:50:06;;;;;;;5.35;3.33;;;9.20;99.90;;;;;;4977390;28;20179;-83
2023/05/18 11:52:32;;;;;;;7.90;3.90;;;9.30;99.90;;;;;;4976933;28;20174;-83
2023/05/18 11:54:59;;;;;;;8.57;3.63;;;9.40;99.90;;;;;;4975820;28;20186;-84
2023/05/18 11:57:34;;;;;;;7.45;3.90;;;9.30;99.90;;;;;;4975761;28;20187;-85
2023/05/18 12:00:06;;;;;;;5.03;3.33;;;9.20;99.90;;;;;;4976178;28;20186;-83
2023/05/18 12:02:33;;;;;;;6.90;3.53;;;9.10;99.90;;;;;;4977039;28;20166;-84
2023/05/18 12:05:01;;;;;;;6.33;3.63;;;9.10;99.90;;;;;;4991975;28;20178;-84
2023/05/18 12:07:29;;;;;;;4.67;2.57;;;9.20;99.90;;;;;;4976619;28;20305;-85
2023/05/18 12:10:19;;;;;;;8.82;3.67;;;9.20;99.90;;;;;;4977064;28;20214;-84
2023/05/18 12:12:48;;;;;;;5.17;2.87;;;9.20;99.90;;;;;;4976313;28;20222;-86
2023/05/18 12:15:14;;;;;;;8.07;3.90;;;9.20;99.90;;;;;;4976554;28;20346;-87
2023/05/18 12:17:41;;;;;;;6.13;3.40;;;9.20;99.90;;;;;;4959422;28;20724;-85
2023/05/18 12:20:14;;;;;;;6.78;3.85;;;9.30;99.90;;;;;;4976941;28;20217;-85
2023/05/18 12:22:40;;;;;;;5.77;3.90;;;9.30;99.90;;;;;;4976237;28;20173;-85
2023/05/18 12:25:07;;;;;;;6.05;3.72;;;9.30;99.90;;;;;;4991543;28;20186;-86
2023/05/18 12:27:41;;;;;;;11.00;3.42;;;9.30;99.90;;;;;;4974992;28;20273;-85
2023/05/18 12:30:14;;;;;;;5.57;3.58;;;9.40;99.90;;;;;;4958901;28;20191;-85
2023/05/18 12:32:53;;;;;;;4.80;3.33;;;9.40;99.90;;;;;;4974949;28;20190;-84
2023/05/18 12:35:23;;;;;;;6.23;3.50;;;9.50;99.90;;;;;;4976478;28;20233;-86
2023/05/18 12:37:48;;;;;;;9.90;3.63;;;9.40;99.90;;;;;;4976699;28;20182;-85
2023/05/18 12:40:16;;;;;;;5.88;3.35;;;9.40;99.90;;;;;;4976204;28;20712;-85
2023/05/18 12:42:58;;;;;;;5.60;3.10;;;9.40;99.90;;;;;;4975792;28;20261;-85
2023/05/18 12:45:31;;;;;;;5.53;2.88;;;9.40;99.90;;;;;;4990887;28;20532;-85
2023/05/18 12:48:07;;;;;;;6.53;2.67;;;9.30;99.90;;;;;;4975429;28;20605;-84
2023/05/18 12:50:34;;;;;;;9.37;3.87;;;9.40;99.90;;;;;;4974492;28;20563;-84
2023/05/18 12:53:03;;;;;;;7.22;2.83;;;9.40;99.90;;;;;;4976088;28;20246;-85
2023/05/18 12:55:30;;;;;;;5.53;3.53;;;9.50;99.90;;;;;;4974795;28;20229;-85
2023/05/18 12:58:05;;;;;;;7.93;4.40;;;9.50;99.90;;;;;;4958609;28;20192;-83
2023/05/18 13:00:34;;;;;;;7.97;3.83;;;9.60;99.90;;;;;;4975759;28;20174;-84
2023/05/18 13:03:13;;;;;;;7.43;4.28;;;9.60;99.90;;;;;;4975980;28;20175;-84